Green Ridge, Missouri
Current Conditions -  °F | °C
As of 11:58 PM on Sunday 23 Nov 2014 (Local Time) from KSZL Reporting Station
Light Rain Light Rain  
Wind Chill: 30°   Ceiling: 1600
Heat Index: 39°   Visibility: 5mi
Dew Point: 35°   Wind: 17mph
Humidity: 88%   Direction: 340°NNW
Pressure: 29.44"   Gusts: 25mph
Location:  38.62°N, 93.41°W
Report Text: KSZL 240558Z 34015G22KT 5SM -RA SCT007 BKN016 04/02 A2944 RMK AO2A PK WND 35029/24 CIG 012V016 BKN V OVC SLP973 P0004 60027 T00380019 10124 20038 52030 $
Loading
Personal Weather Stations






























Interactive Weather Map New forecast layout! Learn more

10-Day Weather Forecast

Advertisements
Track Severe Weather on mobile